FW3046 Weather Reports


Display with metric or nautical units.
time (UTC)temp
F
wind
direction
speed
MPH
gust
MPH
rain 1hr
in
rain 24hr
in
rain mn
in
humidity
%
barometer
mb
20190524104542 49 221 0.0 0.0 0.00 0.04 0.00 91 1019.8
20190524103156 49 221 0.0 0.0 0.00 0.04 0.00 92 1019.6
20190524101540 48 171 0.0 0.0 0.00 0.04 0.00 90 1019.5
20190524100052 49 170 0.0 0.0 0.00 0.04 0.00 90 1019.2
20190524094607 49 171 0.0 0.0 0.00 0.04 0.00 89 1019.1
20190524093037 49 171 0.0 0.0 0.00 0.04 0.00 89 1018.8
20190524091534 49 171 0.0 0.0 0.00 0.04 0.00 89 1018.7
20190524090051 50 171 0.0 0.0 0.00 0.04 0.00 89 1018.5
20190524084537 50 170 0.0 0.0 0.00 0.04 0.00 88 1018.4
20190524083047 50 171 0.0 0.0 0.00 0.04 0.00 87 1018.4
20190524081528 50 171 0.0 0.0 0.00 0.04 0.00 87 1018.3
20190524080058 50 171 0.0 0.0 0.00 0.04 0.00 86 1018.3
20190524074517 51 170 0.0 0.0 0.00 0.04 0.00 85 1018.0
20190524073014 51 171 0.0 0.0 0.00 0.04 0.00 83 1018.1
20190524071513 52 170 0.0 0.0 0.00 0.04 0.00 82 1018.1
20190524070016 53 171 0.0 0.0 0.00 0.04 0.00 80 1018.0
20190524064516 54 171 0.0 0.0 0.00 0.04 0.00 79 1017.5
20190524063142 54 170 0.0 0.0 0.00 0.04 0.00 78 1017.7
20190524061752 55 171 0.0 0.0 0.00 0.04 0.00 75 1017.8
20190524060233 56 171 0.0 0.0 0.00 0.04 0.00 74 1017.8
20190524054636 57 171 0.0 0.0 0.00 0.04 0.00 72 1017.8
20190524053144 59 171 0.0 0.0 0.00 0.04 0.00 71 1017.7
20190524051713 60 170 0.0 0.0 0.00 0.04 0.00 68 1017.6
20190524050307 61 170 0.0 0.0 0.00 0.04 0.00 66 1017.5
20190524044606 62 170 0.0 0.0 0.00 0.04 0.00 63 1017.5
20190524043122 63 171 0.0 0.0 0.00 0.04 0.00 62 1017.3
20190524041556 64 175 0.0 2.0 0.00 0.04 0.04 61 1017.1
20190524040059 65 138 0.0 1.0 0.00 0.04 0.04 60 1017.2
20190524034552 67 174 0.0 4.0 0.00 0.04 0.04 58 1017.1
20190524033049 67 84 0.0 3.0 0.00 0.04 0.04 59 1016.8
20190524031634 68 127 1.0 4.0 0.00 0.04 0.04 61 1016.7
20190524030058 69 193 3.0 9.0 0.00 0.04 0.04 68 1016.5
20190524024539 70 122 0.0 1.0 0.00 0.04 0.04 69 1016.5
20190524023128 71 186 0.0 3.0 0.00 0.04 0.04 67 1016.1
20190524021541 72 79 1.0 3.0 0.00 0.04 0.04 66 1015.6
20190524020104 72 96 2.0 6.0 0.00 0.04 0.04 65 1015.5
20190524014610 73 76 1.0 6.0 0.00 0.04 0.04 65 1015.3
20190524013030 73 115 0.0 4.0 0.00 0.04 0.04 66 1015.1
20190524011540 74 83 1.0 6.0 0.00 0.04 0.04 64 1014.9
20190524010027 74 75 1.0 7.0 0.00 0.04 0.04 64 1014.7
20190524004602 75 91 1.0 9.0 0.00 0.04 0.04 63 1014.5
20190524003033 76 78 3.0 8.0 0.00 0.04 0.04 63 1014.3
20190524001532 77 184 1.0 6.0 0.00 0.04 0.04 65 1014.2
20190524000021 77 104 3.0 8.0 0.00 0.04 0.04 64 1014.2
20190523234522 78 149 2.0 10.0 0.00 0.04 0.04 64 1014.0
20190523233031 79 112 1.0 8.0 0.00 0.04 0.04 63 1014.0
20190523231511 79 93 1.0 8.0 0.00 0.04 0.04 62 1014.0
20190523230013 79 76 3.0 10.0 0.00 0.04 0.04 60 1014.2
20190523224504 80 75 4.0 10.0 0.00 0.04 0.04 60 1014.0
20190523223009 80 197 2.0 7.0 0.00 0.04 0.04 60 1014.0
20190523221510 80 108 2.0 14.0 0.00 0.04 0.04 58 1014.4
20190523220002 81 86 3.0 13.0 0.00 0.04 0.04 57 1014.3
20190523214503 81 17 4.0 13.0 0.00 0.04 0.04 57 1014.2
20190523213213 82 66 4.0 9.0 0.00 0.04 0.04 56 1014.0
20190523211716 82 84 3.0 10.0 0.00 0.04 0.04 59 1013.9
20190523210223 83 175 4.0 10.0 0.00 0.04 0.04 55 1014.0
20190523204655 84 68 4.0 13.0 0.00 0.04 0.04 53 1014.0
20190523203215 83 69 2.0 7.0 0.00 0.04 0.04 57 1014.0
20190523201641 83 110 3.0 9.0 0.00 0.04 0.04 58 1014.0
20190523200210 83 203 1.0 12.0 0.00 0.04 0.04 60 1014.0
20190523194702 84 121 1.0 6.0 0.00 0.04 0.04 60 1014.3
20190523193213 83 160 2.0 11.0 0.00 0.04 0.04 59 1014.3
20190523191617 82 97 4.0 12.0 0.00 0.04 0.04 58 1014.3
20190523190108 82 154 5.0 11.0 0.00 0.04 0.04 59 1014.1
20190523184705 82 8 2.0 9.0 0.00 0.04 0.04 61 1014.1
20190523183120 81 114 2.0 10.0 0.00 0.04 0.04 62 1014.3
20190523181654 81 90 5.0 11.0 0.00 0.04 0.04 59 1014.5
20190523180222 82 94 3.0 8.0 0.00 0.04 0.04 57 1014.2
20190523174620 83 112 3.0 9.0 0.00 0.04 0.04 55 1014.2
20190523173115 82 110 3.0 11.0 0.00 0.04 0.04 55 1014.5
20190523171608 81 358 2.0 8.0 0.00 0.04 0.04 59 1014.5
20190523170055 81 52 3.0 8.0 0.00 0.04 0.04 56 1014.6
20190523164642 80 91 2.0 10.0 0.00 0.04 0.04 59 1014.6
20190523163106 79 79 2.0 6.0 0.00 0.04 0.04 58 1014.8
20190523161534 76 326 3.0 9.0 0.00 0.04 0.04 60 1015.1
20190523160059 74 78 2.0 7.0 0.00 0.04 0.04 61 1015.4
20190523154530 74 65 2.0 7.0 0.00 0.04 0.04 61 1015.6
20190523153032 74 319 2.0 7.0 0.00 0.04 0.04 64 1015.9
20190523151526 73 289 1.0 6.0 0.00 0.04 0.04 70 1016.3
20190523150014 72 91 1.0 9.0 0.00 0.04 0.04 71 1016.5
20190523144514 72 84 3.0 9.0 0.00 0.04 0.04 72 1016.4
20190523143023 71 86 1.0 5.0 0.00 0.04 0.04 78 1016.4
20190523141504 68 82 1.0 4.0 0.00 0.04 0.04 82 1016.6
20190523140007 66 60 0.0 5.0 0.00 0.04 0.04 84 1016.9
20190523134505 66 134 0.0 5.0 0.02 0.04 0.04 82 1017.1
20190523133008 67 240 1.0 5.0 0.04 0.04 0.04 81 1017.2
20190523131501 67 246 0.0 4.0 0.04 0.04 0.04 85 1017.1
20190523130208 67 132 3.0 9.0 0.04 0.04 0.04 85 1016.8
20190523124720 68 145 1.0 8.0 0.02 0.02 0.02 87 1017.1
20190523123119 68 115 2.0 6.0 0.00 0.00 0.00 90 1017.2
20190523121741 67 325 0.0 3.0 0.00 0.00 0.00 92 1016.1
20190523120151 66 236 0.0 3.0 0.00 0.00 0.00 94 1016.1
20190523114615 66 212 0.0 1.0 0.00 0.00 0.00 94 1016.4
20190523113130 65 190 0.0 0.0 0.00 0.00 0.00 95 1016.5
20190523111655 64 37 0.0 0.0 0.00 0.00 0.00 95 1016.6
20190523110209 64 37 0.0 0.0 0.00 0.00 0.00 95 1016.7